Time;durP1;ratioP1;P1;durP2;ratioP2;P2;SDS_P1;SDS_P2;PMS_P1;PMS_P2;Temp;Humidity;BMP_temperature;BMP_pressure;BME280_temperature;BME280_humidity;BME280_pressure;Samples;Min_cycle;Max_cycle;Signal;HPM_P1;HPM_P2
2023/04/30 00:01:27;;;;;;;;;25.33;24.67;;;;;12.26;61.88;101614.72;5115544;27;45368;-70
2023/04/30 00:03:52;;;;;;;;;26.33;24.67;;;;;12.02;62.21;101577.72;5098397;27;45687;-70
2023/04/30 00:06:18;;;;;;;;;27.00;26.67;;;;;12.37;62.46;101632.44;5106206;27;45322;-70
2023/04/30 00:08:43;;;;;;;;;35.67;30.00;;;;;12.39;62.26;101628.66;5079273;27;46279;-69
2023/04/30 00:11:08;;;;;;;;;37.00;31.00;;;;;12.29;62.04;101610.94;5114070;27;45439;-67
2023/04/30 00:13:34;;;;;;;;;40.33;33.33;;;;;12.39;61.83;101630.50;5114612;27;45589;-70
2023/04/30 00:15:59;;;;;;;;;10.00;10.00;;;;;12.24;62.25;101624.69;5088325;27;45728;-69
2023/04/30 00:18:24;;;;;;;;;35.67;32.00;;;;;12.29;62.75;101627.78;5107290;27;45509;-71
2023/04/30 00:20:52;;;;;;;;;39.33;32.67;;;;;11.76;62.46;101526.66;5079373;27;45673;-70
2023/04/30 00:23:17;;;;;;;;;34.67;28.33;;;;;11.98;62.59;101559.44;5098375;27;45297;-69
2023/04/30 00:25:42;;;;;;;;;46.67;37.00;;;;;12.24;62.45;101594.53;5087806;27;45653;-68
2023/04/30 00:28:08;;;;;;;;;39.67;35.00;;;;;12.43;62.83;101632.78;5104455;27;70157;-71
2023/04/30 00:30:33;;;;;;;;;39.00;34.67;;;;;12.16;62.45;101590.69;5100459;27;45438;-72
2023/04/30 00:32:58;;;;;;;;;44.33;36.00;;;;;12.44;62.48;101628.28;5111533;27;58578;-70
2023/04/30 00:35:24;;;;;;;;;44.33;37.00;;;;;12.36;62.51;101607.59;5088499;27;45654;-68
2023/04/30 00:37:49;;;;;;;;;37.33;30.33;;;;;12.52;62.36;101622.25;5105770;27;45719;-66
2023/04/30 00:40:15;;;;;;;;;40.33;35.67;;;;;12.44;62.51;101618.47;5104740;27;45499;-70
2023/04/30 00:42:40;;;;;;;;;33.00;31.67;;;;;12.22;62.28;101586.66;5082318;27;45581;-71
2023/04/30 00:45:06;;;;;;;;;40.33;31.67;;;;;12.41;62.22;101628.53;5112839;27;45337;-69
2023/04/30 00:47:32;;;;;;;;;44.00;35.00;;;;;12.02;62.52;101555.56;5097286;27;46444;-69
2023/04/30 00:49:58;;;;;;;;;38.00;32.67;;;;;12.38;62.77;101610.97;5109923;27;45406;-71
2023/04/30 00:52:23;;;;;;;;;36.00;32.00;;;;;12.40;62.30;101619.69;5110102;27;45451;-69
2023/04/30 00:54:52;;;;;;;;;33.00;31.00;;;;;12.30;62.52;101589.47;5098653;27;45308;-69
2023/04/30 00:57:19;;;;;;;;;32.33;30.67;;;;;12.39;62.67;101602.00;5111265;27;46561;-68
2023/04/30 00:59:45;;;;;;;;;44.00;33.00;;;;;11.92;62.68;101528.84;5098428;27;45442;-67
2023/04/30 01:02:11;;;;;;;;;37.33;32.33;;;;;12.32;62.64;101603.53;5117520;27;45776;-68
2023/04/30 01:04:37;;;;;;;;;32.00;30.00;;;;;12.18;62.72;101577.22;5090694;27;45627;-70
2023/04/30 01:07:02;;;;;;;;;36.33;32.33;;;;;12.27;63.16;101603.09;5117334;27;45868;-67
2023/04/30 01:09:29;;;;;;;;;39.00;33.33;;;;;11.83;63.23;101530.50;5102053;27;45970;-70
2023/04/30 01:12:20;;;;;;;;;35.33;32.33;;;;;12.22;63.06;101592.00;5097425;27;45278;-70
2023/04/30 01:15:01;;;;;;;;;30.00;29.67;;;;;12.13;63.02;101598.09;5097773;27;45318;-70
2023/04/30 01:17:49;;;;;;;;;38.67;31.00;;;;;12.06;63.71;101594.28;5103308;27;47046;-68
2023/04/30 01:20:14;;;;;;;;;36.00;30.00;;;;;12.05;63.18;101576.63;5112791;27;45514;-69
2023/04/30 01:23:05;;;;;;;;;24.00;24.00;;;;;12.12;63.20;101588.44;5086801;27;45743;-67
2023/04/30 01:25:39;;;;;;;;;35.67;29.33;;;;;12.16;63.11;101584.50;5105563;27;45256;-69
2023/04/30 01:28:08;;;;;;;;;32.67;29.67;;;;;12.10;63.17;101588.56;5097768;27;45679;-70
2023/04/30 01:30:36;;;;;;;;;33.67;31.67;;;;;12.11;63.56;101590.25;5097390;27;45178;-70
2023/04/30 01:33:02;;;;;;;;;27.67;27.67;;;;;11.33;63.17;101448.75;5108269;27;45412;-70
2023/04/30 01:36:09;;;;;;;;;36.00;32.00;;;;;12.11;63.34;101582.25;5117721;27;45263;-70
2023/04/30 01:38:59;;;;;;;;;35.33;30.67;;;;;12.14;63.63;101584.66;5078196;27;47686;-68
2023/04/30 01:41:53;;;;;;;;;35.67;31.67;;;;;12.13;63.38;101576.78;5096600;27;45547;-68
2023/04/30 01:44:41;;;;;;;;;27.33;26.33;;;;;12.10;63.39;101585.91;5094958;27;45498;-70
2023/04/30 01:47:31;;;;;;;;;30.00;29.33;;;;;12.04;63.49;101580.25;5100030;27;45561;-70
2023/04/30 01:49:59;;;;;;;;;32.00;28.33;;;;;12.00;63.42;101584.16;5112109;27;45786;-70
2023/04/30 01:52:42;;;;;;;;;26.33;26.33;;;;;11.98;63.71;101578.09;5120058;27;45562;-69
2023/04/30 01:55:12;;;;;;;;;31.67;30.00;;;;;12.01;63.76;101589.34;5119503;27;45282;-69
2023/04/30 01:57:43;;;;;;;;;33.67;30.33;;;;;11.90;63.60;101570.78;5090296;27;45251;-71
2023/04/30 02:00:10;;;;;;;;;29.33;28.00;;;;;11.94;63.97;101579.34;5099533;27;46525;-70
2023/04/30 02:02:35;;;;;;;;;28.67;25.33;;;;;11.72;63.61;101548.34;5100115;27;45475;-68
2023/04/30 02:05:01;;;;;;;;;28.67;22.00;;;;;11.56;64.03;101520.38;5107881;27;45316;-71
2023/04/30 02:07:36;;;;;;;;;32.00;30.00;;;;;11.93;63.85;101577.66;5117585;27;45227;-68
2023/04/30 02:10:02;;;;;;;;;32.00;30.00;;;;;11.95;64.07;101589.03;5108463;27;46778;-68
2023/04/30 02:12:28;;;;;;;;;31.00;30.33;;;;;11.83;64.12;101577.63;5099904;27;45697;-69
2023/04/30 02:14:54;;;;;;;;;27.67;25.33;;;;;11.78;64.67;101588.66;5105977;27;45308;-67
2023/04/30 02:17:20;;;;;;;;;27.33;26.67;;;;;11.72;64.43;101590.97;5103003;27;45405;-69
2023/04/30 02:19:45;;;;;;;;;30.33;25.33;;;;;11.77;63.83;101586.94;5099786;27;45464;-69
2023/04/30 02:22:10;;;;;;;;;29.00;25.67;;;;;11.76;64.03;101598.56;5097371;27;54941;-69
2023/04/30 02:24:35;;;;;;;;;28.33;28.33;;;;;11.62;63.71;101571.44;5100139;27;45474;-69
2023/04/30 02:27:01;;;;;;;;;24.00;22.67;;;;;11.65;64.20;101572.03;5100072;27;45479;-74
2023/04/30 02:29:26;;;;;;;;;22.33;20.00;;;;;11.75;64.18;101591.56;5118496;27;46063;-70
2023/04/30 02:31:52;;;;;;;;;23.67;21.00;;;;;11.72;64.46;101589.16;5106878;27;45644;-68
2023/04/30 02:34:17;;;;;;;;;22.00;22.00;;;;;11.47;64.19;101530.97;5089072;27;45477;-69
2023/04/30 02:36:42;;;;;;;;;25.00;23.00;;;;;11.65;63.73;101555.19;5100383;27;45337;-70
2023/04/30 02:39:07;;;;;;;;;22.00;22.00;;;;;11.86;63.89;101604.84;5098905;27;58579;-69
2023/04/30 02:41:33;;;;;;;;;23.00;23.00;;;;;11.01;63.45;101449.66;5098982;27;45423;-69
2023/04/30 02:43:58;;;;;;;;;24.33;23.67;;;;;11.81;63.33;101585.75;5099383;27;45417;-70
2023/04/30 02:46:23;;;;;;;;;27.67;25.67;;;;;11.13;63.78;101469.09;5115146;27;47009;-70
2023/04/30 02:48:49;;;;;;;;;24.67;24.00;;;;;11.85;63.85;101599.66;5089915;27;48459;-70
2023/04/30 02:51:14;;;;;;;;;26.33;26.00;;;;;11.88;64.06;101586.91;5098844;27;45366;-67
2023/04/30 02:53:40;;;;;;;;;27.67;25.67;;;;;11.91;63.95;101598.28;5082298;27;45313;-70
2023/04/30 02:56:05;;;;;;;;;29.00;25.00;;;;;11.86;63.50;101596.84;5100780;27;45473;-68
2023/04/30 02:58:31;;;;;;;;;26.00;25.00;;;;;11.65;64.02;101581.84;5092913;27;48698;-68
2023/04/30 03:00:56;;;;;;;;;25.33;24.00;;;;;11.58;64.38;101565.50;5116639;27;45607;-68
2023/04/30 03:03:21;;;;;;;;;23.00;22.67;;;;;11.64;64.23;101565.00;5104716;27;45735;-68
2023/04/30 03:05:47;;;;;;;;;22.00;18.67;;;;;11.77;63.85;101586.94;5099734;27;45198;-69
2023/04/30 03:08:12;;;;;;;;;26.00;25.00;;;;;11.77;64.32;101586.94;5111016;27;46425;-70
2023/04/30 03:10:37;;;;;;;;;27.67;26.00;;;;;11.36;64.20;101517.72;5102713;27;45245;-69
2023/04/30 03:13:03;;;;;;;;;28.00;25.33;;;;;11.69;64.48;101576.09;5099222;27;45456;-69
2023/04/30 03:15:28;;;;;;;;;28.33;24.33;;;;;11.69;64.42;101589.44;5094741;27;56766;-70
2023/04/30 03:17:53;;;;;;;;;27.67;26.33;;;;;10.36;64.32;101363.81;5100491;27;46312;-68
2023/04/30 03:20:18;;;;;;;;;27.00;24.67;;;;;11.71;64.09;101576.81;5108461;27;54021;-69
2023/04/30 03:22:44;;;;;;;;;21.67;20.67;;;;;10.98;64.57;101464.09;5107388;27;45679;-69
2023/04/30 03:25:10;;;;;;;;;28.33;23.00;;;;;11.44;64.31;101523.25;5098587;27;45223;-71
2023/04/30 03:27:35;;;;;;;;;34.00;29.67;;;;;11.64;64.37;101569.50;5098578;27;45719;-68
2023/04/30 03:30:01;;;;;;;;;30.00;28.00;;;;;11.40;64.47;101535.09;5107098;27;45608;-70
2023/04/30 03:32:26;;;;;;;;;35.33;31.00;;;;;11.65;64.92;101587.16;5098652;27;45422;-70
2023/04/30 03:34:51;;;;;;;;;34.33;30.67;;;;;11.67;64.79;101596.69;5088308;27;45378;-69
2023/04/30 03:37:17;;;;;;;;;32.67;28.00;;;;;11.65;65.13;101576.50;5097934;27;60535;-69
2023/04/30 03:39:42;;;;;;;;;33.00;30.00;;;;;11.70;64.65;101580.47;5104642;27;45398;-69
2023/04/30 03:42:07;;;;;;;;;29.00;24.33;;;;;11.07;64.66;101470.47;5089193;27;61072;-69
2023/04/30 03:44:32;;;;;;;;;29.00;23.33;;;;;11.44;65.10;101537.41;5080151;27;45459;-68
2023/04/30 03:46:58;;;;;;;;;33.67;30.67;;;;;11.37;65.25;101527.38;5107199;27;45238;-73
2023/04/30 03:49:23;;;;;;;;;34.33;30.33;;;;;11.70;65.43;101580.47;5109035;27;62678;-69
2023/04/30 03:51:48;;;;;;;;;36.00;29.33;;;;;11.63;65.61;101560.66;5084634;27;45260;-71
2023/04/30 03:54:14;;;;;;;;;22.33;20.33;;;;;11.52;65.35;101544.72;5114851;27;56144;-67
2023/04/30 03:56:40;;;;;;;;;32.67;29.67;;;;;11.43;65.13;101524.22;5098449;27;46623;-70
2023/04/30 03:59:05;;;;;;;;;29.33;28.33;;;;;11.64;65.79;101569.50;5098525;27;45327;-73
2023/04/30 04:01:30;;;;;;;;;30.33;28.33;;;;;11.68;65.45;101582.41;5088742;27;45327;-68
2023/04/30 04:03:56;;;;;;;;;34.67;32.33;;;;;11.71;65.00;101576.81;5100781;27;45402;-70
2023/04/30 04:06:21;;;;;;;;;33.00;27.67;;;;;11.47;65.40;101534.47;5088907;27;47446;-69
2023/04/30 04:08:47;;;;;;;;;36.67;32.67;;;;;11.67;65.50;101556.75;5096988;27;45342;-70
2023/04/30 04:11:12;;;;;;;;;40.33;32.67;;;;;11.74;65.76;101576.53;5087359;27;47405;-71
2023/04/30 04:13:37;;;;;;;;;32.67;31.00;;;;;11.31;65.29;101498.63;5110470;27;45256;-68
2023/04/30 04:16:03;;;;;;;;;33.00;29.33;;;;;11.72;65.74;101573.19;5117851;27;48082;-68
2023/04/30 04:18:28;;;;;;;;;32.33;29.67;;;;;11.65;65.60;101566.69;5087899;27;45895;-70
2023/04/30 04:20:55;;;;;;;;;39.67;32.67;;;;;11.68;65.88;101577.09;5098056;27;45481;-68
2023/04/30 04:23:20;;;;;;;;;37.33;32.00;;;;;11.70;65.85;101583.13;5097978;27;45540;-69
2023/04/30 04:25:48;;;;;;;;;36.33;32.33;;;;;11.67;65.88;101567.41;5109579;27;46351;-68
2023/04/30 04:28:14;;;;;;;;;34.00;30.33;;;;;11.20;66.00;101494.22;5109648;27;45573;-69
2023/04/30 04:30:39;;;;;;;;;35.67;31.67;;;;;11.75;65.81;101570.25;5098266;27;45640;-68
2023/04/30 04:33:04;;;;;;;;;34.67;33.00;;;;;11.61;65.82;101559.91;5106709;27;45367;-73
2023/04/30 04:35:30;;;;;;;;;32.33;30.33;;;;;11.58;65.71;101544.19;5097635;27;46522;-69
2023/04/30 04:37:55;;;;;;;;;31.00;30.67;;;;;11.55;65.92;101539.13;5101258;27;45285;-68
2023/04/30 04:40:21;;;;;;;;;29.33;29.33;;;;;11.81;65.61;101572.44;5100953;27;45456;-70
2023/04/30 04:42:49;;;;;;;;;36.00;33.33;;;;;11.86;65.33;101590.69;5095610;27;45728;-69
2023/04/30 04:45:14;;;;;;;;;35.67;32.00;;;;;11.72;65.90;101557.19;5097658;27;45753;-69
2023/04/30 04:47:40;;;;;;;;;36.33;33.00;;;;;11.85;66.02;101576.53;5097301;27;45621;-68
2023/04/30 04:50:06;;;;;;;;;30.67;28.67;;;;;11.89;65.65;101585.09;5097888;27;45466;-68
2023/04/30 04:52:32;;;;;;;;;45.00;33.33;;;;;11.85;66.11;101575.69;5105702;27;45462;-72
2023/04/30 04:54:57;;;;;;;;;40.67;34.67;;;;;11.86;66.25;101580.88;5113854;27;45641;-68
2023/04/30 04:57:22;;;;;;;;;42.67;35.00;;;;;11.60;66.27;101552.91;5096992;27;52104;-68
2023/04/30 04:59:47;;;;;;;;;46.67;36.67;;;;;11.84;66.64;101580.16;5106243;27;56646;-69
2023/04/30 05:02:13;;;;;;;;;36.67;31.00;;;;;11.46;66.70;101523.97;5104372;27;45459;-67
2023/04/30 05:04:38;;;;;;;;;40.00;34.67;;;;;11.88;66.64;101594.91;5103999;27;56525;-70
2023/04/30 05:07:04;;;;;;;;;36.67;33.00;;;;;11.86;66.47;101596.84;5097212;27;45236;-69
2023/04/30 05:09:29;;;;;;;;;34.00;31.67;;;;;11.68;66.41;101574.41;5097186;27;45258;-68
2023/04/30 05:11:55;;;;;;;;;38.67;33.00;;;;;11.22;66.17;101495.78;5096761;27;50182;-68
2023/04/30 05:14:20;;;;;;;;;39.67;35.67;;;;;11.96;66.24;101594.22;5103072;27;62482;-69
2023/04/30 05:16:46;;;;;;;;;45.33;37.00;;;;;12.00;66.10;101597.47;5095722;27;45412;-70
2023/04/30 05:19:11;;;;;;;;;37.00;33.00;;;;;12.03;65.88;101598.06;5105857;27;45397;-69
2023/04/30 05:21:39;;;;;;;;;39.00;34.00;;;;;12.15;65.44;101601.47;5116047;27;45312;-70
2023/04/30 05:24:06;;;;;;;;;44.33;36.00;;;;;12.20;65.16;101604.59;5099566;27;48310;-69
2023/04/30 05:26:31;;;;;;;;;43.67;35.00;;;;;12.24;65.11;101610.53;5114684;27;45327;-70
2023/04/30 05:28:57;;;;;;;;;41.00;36.00;;;;;11.86;65.05;101540.06;5104109;27;45485;-70
2023/04/30 05:31:22;;;;;;;;;40.33;35.67;;;;;12.01;64.99;101553.84;5098105;27;45477;-71
2023/04/30 05:33:47;;;;;;;;;38.33;33.33;;;;;12.24;64.71;101598.03;5108724;27;45570;-71
2023/04/30 05:36:13;;;;;;;;;39.33;34.00;;;;;11.43;64.28;101455.00;5108483;27;45478;-71
2023/04/30 05:38:38;;;;;;;;;47.67;35.33;;;;;12.40;64.71;101605.50;5109065;27;45277;-71
2023/04/30 05:41:04;;;;;;;;;38.00;32.67;;;;;12.46;64.46;101621.84;5117247;27;45250;-67
2023/04/30 05:43:29;;;;;;;;;44.67;38.67;;;;;12.45;63.95;101614.81;5100407;27;46435;-70
2023/04/30 05:45:55;;;;;;;;;42.33;33.67;;;;;12.53;64.26;101621.28;5108794;27;45244;-71
2023/04/30 05:48:20;;;;;;;;;42.67;36.00;;;;;12.56;63.96;101632.53;5100496;27;45478;-68
2023/04/30 05:50:45;;;;;;;;;42.67;35.00;;;;;12.52;63.89;101614.25;5108994;27;45226;-68
2023/04/30 05:53:12;;;;;;;;;47.00;35.00;;;;;12.58;63.55;101619.03;5100204;27;45536;-68
2023/04/30 05:55:38;;;;;;;;;35.67;32.67;;;;;12.68;64.40;101614.59;5109656;27;45488;-69
2023/04/30 05:58:03;;;;;;;;;41.00;34.00;;;;;12.48;63.97;101603.03;5107885;27;45205;-71
2023/04/30 06:00:28;;;;;;;;;40.67;36.00;;;;;12.54;63.62;101598.97;5109771;27;45540;-71
2023/04/30 06:02:54;;;;;;;;;37.00;33.00;;;;;12.53;63.64;101594.63;5099861;27;45391;-69
2023/04/30 06:05:19;;;;;;;;;47.00;36.00;;;;;12.76;63.12;101620.94;5099742;27;45574;-70
2023/04/30 06:07:44;;;;;;;;;44.67;37.67;;;;;12.66;63.96;101606.75;5108632;27;45411;-69
2023/04/30 06:10:11;;;;;;;;;41.00;35.33;;;;;11.95;63.51;101485.94;5100137;27;45668;-72
2023/04/30 06:12:36;;;;;;;;;36.00;33.00;;;;;12.87;63.37;101624.47;5107877;27;46633;-68
2023/04/30 06:15:02;;;;;;;;;45.33;36.33;;;;;12.92;62.82;101604.41;5107139;27;45472;-68
2023/04/30 06:17:27;;;;;;;;;41.00;35.00;;;;;12.81;62.63;101604.50;5103620;27;45324;-70
2023/04/30 06:19:53;;;;;;;;;42.33;35.33;;;;;13.01;62.84;101632.94;5106412;27;45531;-70
2023/04/30 06:22:18;;;;;;;;;39.00;33.00;;;;;13.04;62.54;101624.66;5099332;27;45976;-69
2023/04/30 06:24:44;;;;;;;;;43.00;34.33;;;;;13.07;62.52;101624.38;5099657;27;45412;-70
2023/04/30 06:27:09;;;;;;;;;45.33;36.00;;;;;13.05;62.59;101623.66;5107426;27;45235;-68
2023/04/30 06:29:35;;;;;;;;;44.67;37.00;;;;;12.84;62.29;101576.72;5091673;27;45600;-70
2023/04/30 06:32:00;;;;;;;;;44.67;35.00;;;;;13.27;61.75;101624.41;5105064;27;46367;-69
2023/04/30 06:34:25;;;;;;;;;41.00;33.67;;;;;13.34;61.55;101617.53;5099681;27;45419;-69
2023/04/30 06:36:51;;;;;;;;;40.00;35.33;;;;;13.38;60.90;101600.22;5119821;27;45330;-69
2023/04/30 06:39:16;;;;;;;;;39.67;35.33;;;;;13.08;60.44;101513.09;5094376;27;45507;-68
2023/04/30 06:41:42;;;;;;;;;43.00;35.67;;;;;13.84;60.29;101630.72;5117444;27;45547;-70
2023/04/30 06:44:08;;;;;;;;;43.67;33.67;;;;;13.84;59.81;101610.19;5111635;27;45299;-68
2023/04/30 06:46:33;;;;;;;;;42.00;35.00;;;;;13.42;59.63;101494.81;5083250;27;45285;-70
2023/04/30 06:48:59;;;;;;;;;45.00;35.00;;;;;14.01;58.97;101568.44;5111650;27;45203;-70
2023/04/30 06:51:25;;;;;;;;;42.67;37.00;;;;;14.18;58.75;101581.06;5098745;27;46427;-69
2023/04/30 06:53:50;;;;;;;;;39.00;34.67;;;;;14.13;58.35;101555.75;5110358;27;45263;-69
2023/04/30 06:56:16;;;;;;;;;49.33;41.00;;;;;14.66;57.70;101630.03;5111022;27;45343;-68
2023/04/30 06:58:41;;;;;;;;;46.33;37.00;;;;;14.74;57.45;101609.53;5118819;27;45443;-68
2023/04/30 07:01:06;;;;;;;;;49.67;39.67;;;;;14.83;57.00;101597.97;5103998;27;45620;-68
2023/04/30 07:03:33;;;;;;;;;44.67;36.67;;;;;15.04;56.98;101608.38;5111032;27;45411;-70
2023/04/30 07:05:58;;;;;;;;;51.67;43.00;;;;;15.30;56.66;101616.50;5119092;27;45469;-69
2023/04/30 07:08:24;;;;;;;;;42.33;37.33;;;;;15.12;55.53;101581.66;5097287;27;45588;-70
2023/04/30 07:10:49;;;;;;;;;40.67;32.00;;;;;14.75;55.30;101489.94;5097058;27;48846;-68
2023/04/30 07:13:15;;;;;;;;;43.67;36.33;;;;;15.58;54.56;101595.78;5107571;27;45254;-69
2023/04/30 07:15:41;;;;;;;;;46.00;38.67;;;;;15.84;54.13;101608.41;5090058;27;45521;-68
2023/04/30 07:18:06;;;;;;;;;42.33;36.33;;;;;16.05;53.92;101609.72;5103173;27;45351;-68
2023/04/30 07:20:32;;;;;;;;;45.67;35.67;;;;;16.23;53.18;101608.81;5112292;27;46233;-71
2023/04/30 07:22:57;;;;;;;;;46.33;39.00;;;;;16.47;52.56;101610.78;5096591;27;45696;-67
2023/04/30 07:25:23;;;;;;;;;46.33;36.00;;;;;16.58;52.20;101595.22;5095105;27;45416;-71
2023/04/30 07:27:51;;;;;;;;;45.00;37.67;;;;;16.91;50.59;101580.06;5107121;27;45423;-70
2023/04/30 07:30:17;;;;;;;;;39.00;34.67;;;;;17.37;49.74;101615.38;5102778;27;45774;-71
2023/04/30 07:32:42;;;;;;;;;44.33;35.67;;;;;17.55;49.26;101617.91;5086091;27;45280;-72
2023/04/30 07:35:08;;;;;;;;;47.33;37.67;;;;;17.88;49.16;101626.84;5089488;27;45475;-70
2023/04/30 07:37:33;;;;;;;;;43.00;38.33;;;;;18.06;48.35;101579.06;5106189;27;45552;-70
2023/04/30 07:39:59;;;;;;;;;44.33;37.33;;;;;18.44;46.84;101587.34;5101731;27;45526;-70
2023/04/30 07:42:25;;;;;;;;;39.33;35.33;;;;;19.12;46.16;101621.66;5106915;27;45423;-70
2023/04/30 07:44:51;;;;;;;;;43.67;35.67;;;;;19.23;45.06;101632.06;5098442;27;45352;-68
2023/04/30 07:47:17;;;;;;;;;51.33;40.67;;;;;19.38;44.72;101626.69;5110182;27;45163;-71
2023/04/30 07:49:42;;;;;;;;;46.33;38.00;;;;;18.99;44.79;101537.88;5104196;27;46412;-70
2023/04/30 07:52:11;;;;;;;;;47.00;37.67;;;;;19.79;43.92;101604.81;5105853;27;45409;-70
2023/04/30 07:54:38;;;;;;;;;43.67;35.67;;;;;20.13;43.95;101618.63;5098755;27;45312;-84
2023/04/30 07:57:04;;;;;;;;;43.33;37.67;;;;;20.08;43.07;101550.88;5099221;27;45557;-70
2023/04/30 07:59:30;;;;;;;;;47.00;37.67;;;;;20.58;42.14;101558.16;5097760;27;45754;-70
2023/04/30 08:01:55;;;;;;;;;40.00;34.00;;;;;20.98;40.66;101574.00;5105825;27;45219;-70
2023/04/30 08:04:21;;;;;;;;;47.67;37.67;;;;;21.62;40.35;101620.00;5115976;27;56326;-71
2023/04/30 08:06:46;;;;;;;;;42.00;35.00;;;;;22.11;39.25;101615.41;5104398;27;45432;-71
2023/04/30 08:09:11;;;;;;;;;38.33;34.00;;;;;22.20;38.67;101620.66;5117302;27;45632;-69
2023/04/30 08:11:36;;;;;;;;;38.67;31.67;;;;;22.14;38.70;101598.75;5099726;27;45273;-70
2023/04/30 08:14:02;;;;;;;;;45.67;37.00;;;;;22.86;38.34;101608.31;5099190;27;46106;-70
2023/04/30 08:16:27;;;;;;;;;37.00;32.33;;;;;22.77;37.46;101563.38;5106589;27;45279;-70
2023/04/30 08:18:53;;;;;;;;;33.00;29.67;;;;;22.41;36.72;101495.94;5085699;27;47516;-68
2023/04/30 08:21:18;;;;;;;;;36.00;31.00;;;;;22.68;36.53;101492.25;5118250;27;45263;-71
2023/04/30 08:23:44;;;;;;;;;39.33;33.67;;;;;23.34;36.72;101552.03;5114780;27;45243;-71
2023/04/30 08:26:10;;;;;;;;;36.33;31.00;;;;;23.50;35.47;101560.81;5113846;27;45470;-70
2023/04/30 08:28:35;;;;;;;;;37.00;34.33;;;;;23.65;36.47;101608.44;5107053;27;45685;-71
2023/04/30 08:31:01;;;;;;;;;37.33;33.67;;;;;23.93;35.24;101581.03;5094374;27;46357;-70
2023/04/30 08:33:26;;;;;;;;;42.33;35.33;;;;;24.14;34.87;101589.97;5108745;27;45450;-70
2023/04/30 08:35:52;;;;;;;;;33.33;32.00;;;;;24.27;34.73;101600.84;5102540;27;45310;-71
2023/04/30 08:38:18;;;;;;;;;36.67;33.00;;;;;24.14;34.68;101573.69;5109713;27;46503;-69
2023/04/30 08:40:51;;;;;;;;;38.33;34.33;;;;;24.41;33.86;101588.88;5106543;27;45388;-69
2023/04/30 08:43:17;;;;;;;;;32.67;30.67;;;;;24.19;34.17;101497.78;5097530;27;45442;-72
2023/04/30 08:45:43;;;;;;;;;32.00;31.00;;;;;24.99;32.99;101596.13;5097627;27;45305;-71
2023/04/30 08:48:11;;;;;;;;;37.00;31.33;;;;;24.57;33.25;101490.53;5111271;27;46081;-69
2023/04/30 08:50:36;;;;;;;;;27.67;25.33;;;;;25.01;33.29;101594.88;5116101;27;46011;-71
2023/04/30 08:53:02;;;;;;;;;33.00;29.67;;;;;25.03;33.06;101600.09;5106067;27;45192;-70
2023/04/30 08:55:27;;;;;;;;;32.67;30.67;;;;;24.92;33.42;101576.31;5094801;27;45634;-69
2023/04/30 08:57:53;;;;;;;;;33.00;30.33;;;;;24.78;32.73;101504.81;5097411;27;46353;-70
2023/04/30 09:00:19;;;;;;;;;26.33;26.33;;;;;25.85;32.62;101592.81;5096985;27;45423;-71
2023/04/30 09:02:46;;;;;;;;;30.67;30.67;;;;;26.12;31.94;101583.31;5087157;27;45416;-71
2023/04/30 09:05:13;;;;;;;;;35.67;30.67;;;;;26.64;31.06;101592.78;5110948;27;45488;-70
2023/04/30 09:07:43;;;;;;;;;28.00;27.00;;;;;26.59;30.60;101501.78;5108340;27;47013;-72
2023/04/30 09:10:20;;;;;;;;;33.67;32.33;;;;;27.18;29.60;101550.03;5097142;27;45258;-72
2023/04/30 09:13:06;;;;;;;;;32.00;27.33;;;;;27.68;28.23;101557.84;5104411;27;45270;-70
2023/04/30 09:15:33;;;;;;;;;33.67;28.33;;;;;28.51;28.54;101572.22;5105981;27;45497;-71
2023/04/30 09:18:06;;;;;;;;;27.00;25.33;;;;;29.43;25.90;101583.78;5098157;27;46592;-74
2023/04/30 09:20:32;;;;;;;;;26.00;25.67;;;;;29.59;26.23;101494.47;5110543;27;45475;-73
2023/04/30 09:23:08;;;;;;;;;27.67;27.33;;;;;31.17;24.72;101572.13;5106066;27;45425;-69
2023/04/30 09:25:41;;;;;;;;;29.67;28.33;;;;;30.05;23.13;101338.84;5097792;27;45406;-71
2023/04/30 09:28:10;;;;;;;;;31.33;29.00;;;;;32.27;23.31;101569.63;5100340;27;45893;-71
2023/04/30 09:30:36;;;;;;;;;26.33;26.33;;;;;31.76;22.21;101511.56;5092290;27;45630;-70
2023/04/30 09:33:02;;;;;;;;;29.67;26.67;;;;;32.18;22.15;101480.41;5105620;27;45300;-71
2023/04/30 09:35:32;;;;;;;;;25.33;23.67;;;;;32.80;21.66;101561.25;5111315;27;45470;-70
2023/04/30 09:38:01;;;;;;;;;27.33;26.00;;;;;33.14;20.72;101478.91;5098938;27;45578;-72
2023/04/30 09:40:37;;;;;;;;;33.33;30.00;;;;;34.34;20.33;101558.06;5097349;27;45413;-73
2023/04/30 09:43:02;;;;;;;;;23.33;22.67;;;;;34.22;20.10;101558.38;5106306;27;45343;-70
2023/04/30 09:45:50;;;;;;;;;26.00;24.67;;;;;34.53;20.11;101534.25;5097115;27;45229;-71
2023/04/30 09:48:16;;;;;;;;;30.33;27.67;;;;;35.05;19.71;101543.88;5107544;27;46917;-70
2023/04/30 09:50:41;;;;;;;;;28.33;23.67;;;;;34.25;20.38;101560.59;5116096;27;45338;-71
2023/04/30 09:53:08;;;;;;;;;22.00;19.00;;;;;33.68;20.40;101542.53;5107251;27;45792;-70
2023/04/30 09:55:35;;;;;;;;;30.00;26.67;;;;;33.14;21.15;101567.09;5096595;27;45283;-69
2023/04/30 09:58:03;;;;;;;;;27.00;25.67;;;;;32.13;22.05;101546.41;5104440;27;45783;-72
2023/04/30 10:00:30;;;;;;;;;28.00;22.67;;;;;31.11;23.56;101564.91;5096577;27;45210;-70
2023/04/30 10:02:59;;;;;;;;;22.00;20.33;;;;;29.43;24.05;101528.16;5096655;27;45331;-71
2023/04/30 10:05:26;;;;;;;;;20.67;19.67;;;;;28.94;25.40;101552.56;5098441;27;45657;-70
2023/04/30 10:07:52;;;;;;;;;18.67;18.67;;;;;28.40;25.91;101530.97;5105532;27;45782;-71
2023/04/30 10:10:19;;;;;;;;;22.33;22.33;;;;;28.13;27.16;101557.19;5108168;27;45192;-72
2023/04/30 10:12:52;;;;;;;;;19.33;18.00;;;;;26.42;27.43;101369.88;5105362;27;45496;-69
2023/04/30 10:15:25;;;;;;;;;22.00;18.33;;;;;26.84;28.10;101558.94;5110385;27;45510;-70
2023/04/30 10:17:59;;;;;;;;;22.33;18.67;;;;;25.39;29.44;101434.22;5105288;27;45758;-68
2023/04/30 10:20:25;;;;;;;;;18.67;18.67;;;;;24.85;30.71;101500.19;5110890;27;45436;-70
2023/04/30 10:22:52;;;;;;;;;20.00;17.33;;;;;24.15;32.29;101510.16;5106124;27;45281;-71
2023/04/30 10:25:18;;;;;;;;;19.33;17.67;;;;;24.10;32.66;101535.25;5108563;27;45390;-73
2023/04/30 10:27:45;;;;;;;;;15.67;14.33;;;;;24.05;33.08;101543.22;5115852;27;46107;-72
2023/04/30 10:30:11;;;;;;;;;16.67;14.00;;;;;23.95;33.31;101532.78;5093641;27;45312;-70
2023/04/30 10:32:54;;;;;;;;;16.67;15.67;;;;;23.37;33.86;101464.78;5083387;27;45435;-68
2023/04/30 10:35:29;;;;;;;;;14.67;14.33;;;;;23.33;34.10;101458.09;5119716;27;45548;-72
2023/04/30 10:38:15;;;;;;;;;16.00;16.00;;;;;23.56;34.08;101533.69;5094293;27;48469;-71
2023/04/30 10:40:46;;;;;;;;;19.00;19.00;;;;;22.87;35.10;101523.19;5086070;27;45466;-70
2023/04/30 10:43:12;;;;;;;;;18.00;17.00;;;;;22.43;36.65;101523.69;5080830;27;45298;-72
2023/04/30 10:45:42;;;;;;;;;18.67;16.67;;;;;22.37;35.90;101495.50;5088391;27;45496;-70
2023/04/30 10:48:07;;;;;;;;;15.33;15.33;;;;;22.64;35.80;101510.00;5105301;27;46558;-70
2023/04/30 10:50:39;;;;;;;;;14.67;13.67;;;;;22.61;35.15;101517.66;5109701;27;45413;-70
2023/04/30 10:53:05;;;;;;;;;14.00;13.67;;;;;22.29;35.03;101524.66;5099694;27;45449;-70
2023/04/30 10:55:31;;;;;;;;;11.00;10.67;;;;;22.01;34.99;101520.09;5099377;27;45489;-72
2023/04/30 10:57:57;;;;;;;;;12.33;9.33;;;;;21.92;35.38;101507.78;5107440;27;45636;-70
2023/04/30 11:00:27;;;;;;;;;15.67;15.67;;;;;21.74;36.43;101493.94;5099117;27;45500;-70
2023/04/30 11:03:02;;;;;;;;;17.33;14.00;;;;;21.78;36.80;101511.44;5099169;27;45319;-70
2023/04/30 11:05:37;;;;;;;;;15.67;14.67;;;;;21.58;36.28;101505.06;5099406;27;45267;-70
2023/04/30 11:08:03;;;;;;;;;14.33;13.33;;;;;21.24;36.22;101468.84;5092190;27;46024;-71
2023/04/30 11:10:32;;;;;;;;;13.67;13.33;;;;;21.35;36.63;101492.63;5097122;27;45477;-71